createdAt,value
2017-11-30T00:00:15.056Z,83.04
2017-11-30T00:01:24.866Z,82.09
2017-11-30T00:02:34.429Z,82.09
2017-11-30T00:03:44.315Z,82.28
2017-11-30T00:04:54.401Z,82.09
2017-11-30T00:06:04.498Z,82.09
2017-11-30T00:07:14.990Z,82.47
2017-11-30T00:08:25.071Z,82.47
2017-11-30T00:09:35.205Z,82.28
2017-11-30T00:10:44.760Z,82.47
2017-11-30T00:11:54.588Z,81.99
2017-11-30T00:13:04.666Z,82.09
2017-11-30T00:14:14.834Z,82.09
2017-11-30T00:15:24.598Z,82.09
2017-11-30T00:16:34.674Z,82.09
2017-11-30T00:17:44.761Z,82.37
2017-11-30T00:18:54.578Z,82.09
2017-11-30T00:20:04.663Z,82.37
2017-11-30T00:21:14.266Z,82.47
2017-11-30T00:22:24.083Z,82.37
2017-11-30T00:23:34.177Z,81.99
2017-11-30T00:24:44.252Z,82.37
2017-11-30T00:25:53.561Z,82.37
2017-11-30T00:27:03.439Z,82.18
2017-11-30T00:28:13.288Z,82.18
2017-11-30T00:29:23.137Z,82.47
2017-11-30T00:30:32.971Z,82.28
2017-11-30T00:31:42.775Z,82.18
2017-11-30T00:32:52.834Z,82.47
2017-11-30T00:34:02.917Z,82.28
2017-11-30T00:35:12.797Z,82.37
2017-11-30T00:36:22.890Z,82.18
2017-11-30T00:37:32.963Z,82.18
2017-11-30T00:38:43.088Z,82.18
2017-11-30T00:39:52.892Z,82.56
2017-11-30T00:41:02.982Z,82.56
2017-11-30T00:42:13.045Z,82.47
2017-11-30T00:43:23.157Z,82.47
2017-11-30T00:44:33.230Z,82.56
2017-11-30T00:45:43.036Z,82.37
2017-11-30T00:46:53.096Z,82.66
2017-11-30T00:48:02.928Z,82.37
2017-11-30T00:49:12.735Z,82.09
2017-11-30T00:50:22.632Z,82.47
2017-11-30T00:51:32.163Z,82.47
2017-11-30T00:52:42.225Z,82.28
2017-11-30T00:53:51.771Z,82.47
2017-11-30T00:55:01.567Z,82.66
2017-11-30T00:56:11.694Z,82.47
2017-11-30T00:57:21.783Z,82.47
2017-11-30T00:58:31.578Z,82.47
2017-11-30T00:59:41.690Z,82.56
2017-11-30T01:00:51.765Z,82.47
2017-11-30T01:02:01.868Z,82.47
2017-11-30T01:03:11.684Z,82.47
2017-11-30T01:04:21.769Z,82.66
2017-11-30T01:05:31.837Z,82.66
2017-11-30T01:06:41.669Z,81.9
2017-11-30T01:07:51.527Z,81.99
2017-11-30T01:09:01.330Z,82.56
2017-11-30T01:10:11.424Z,82.47
2017-11-30T01:11:21.513Z,82.37
2017-11-30T01:12:31.053Z,82.56
2017-11-30T01:13:41.179Z,81.99
2017-11-30T01:14:51.285Z,81.99
2017-11-30T01:16:01.352Z,82.28
2017-11-30T01:17:10.896Z,82.66
2017-11-30T01:18:20.698Z,82.66
2017-11-30T01:19:30.773Z,82.56
2017-11-30T01:20:40.586Z,82.18
2017-11-30T01:21:50.657Z,82.75
2017-11-30T01:23:00.755Z,82.37
2017-11-30T01:24:10.586Z,82.09
2017-11-30T01:25:20.714Z,82.75
2017-11-30T01:26:31.316Z,81.9
2017-11-30T01:27:41.114Z,81.9
2017-11-30T01:28:50.923Z,81.9
2017-11-30T01:30:00.752Z,81.99
2017-11-30T01:31:10.542Z,82.47
2017-11-30T01:32:20.614Z,82.47
2017-11-30T01:33:30.452Z,82.37
2017-11-30T01:34:40.526Z,81.99
2017-11-30T01:35:50.073Z,82.47
2017-11-30T01:37:02.116Z,82.28
2017-11-30T01:38:11.939Z,82.28
2017-11-30T01:39:21.745Z,82.47
2017-11-30T01:40:31.572Z,82.66
2017-11-30T01:41:41.663Z,81.9
2017-11-30T01:42:51.758Z,81.81
2017-11-30T01:44:01.850Z,82.18
2017-11-30T01:45:11.383Z,82.18
2017-11-30T01:46:21.696Z,81.81
2017-11-30T01:47:31.798Z,81.9
2017-11-30T01:48:41.941Z,81.9
2017-11-30T01:49:52.017Z,82.28
2017-11-30T01:51:01.569Z,82.28
2017-11-30T01:52:12.255Z,82.18
2017-11-30T01:53:22.361Z,82.18
2017-11-30T01:54:32.437Z,82.28
2017-11-30T01:55:42.254Z,81.9
2017-11-30T01:56:52.324Z,81.81
2017-11-30T01:58:02.411Z,81.81
2017-11-30T01:59:12.600Z,82.18
2017-11-30T02:00:22.460Z,82.18
2017-11-30T02:01:32.257Z,81.81
2017-11-30T02:02:41.544Z,81.81
2017-11-30T02:03:51.349Z,82.18
2017-11-30T02:05:01.179Z,82.18
2017-11-30T02:06:11.269Z,81.81
2017-11-30T02:07:20.807Z,81.9
2017-11-30T02:08:30.867Z,81.81
2017-11-30T02:09:40.952Z,82.18
2017-11-30T02:10:51.029Z,81.62
2017-11-30T02:12:00.888Z,81.52
2017-11-30T02:13:10.699Z,81.71
2017-11-30T02:14:20.255Z,81.71
2017-11-30T02:15:30.354Z,81.99
2017-11-30T02:16:40.149Z,81.81
2017-11-30T02:17:50.221Z,82.37
2017-11-30T02:19:00.294Z,82.56
2017-11-30T02:20:10.089Z,82.18
2017-11-30T02:21:20.175Z,82.28
2017-11-30T02:22:29.965Z,82.28
2017-11-30T02:23:39.810Z,82.28
2017-11-30T02:24:49.629Z,82.28
2017-11-30T02:25:59.690Z,82.47
2017-11-30T02:27:09.501Z,82.09
2017-11-30T02:28:20.349Z,82.09
2017-11-30T02:29:29.610Z,82.66
2017-11-30T02:30:39.678Z,82.66
2017-11-30T02:31:49.762Z,82.85
2017-11-30T02:32:59.581Z,82.94
2017-11-30T02:34:09.664Z,82.85
2017-11-30T02:35:19.794Z,82.94
2017-11-30T02:36:29.870Z,82.94
2017-11-30T02:37:39.947Z,81.99
2017-11-30T02:38:49.764Z,82.94
2017-11-30T02:39:59.875Z,82.66
2017-11-30T02:41:10.009Z,82.66
2017-11-30T02:42:20.093Z,82.66
2017-11-30T02:43:29.903Z,82.85
2017-11-30T02:44:39.962Z,82.94
2017-11-30T02:45:49.798Z,82.66
2017-11-30T02:46:59.877Z,82.85
2017-11-30T02:48:09.438Z,81.9
2017-11-30T02:49:19.536Z,82.09
2017-11-30T02:50:29.357Z,82.09
2017-11-30T02:51:39.167Z,82.28
2017-11-30T02:52:48.992Z,82.28
2017-11-30T02:53:58.782Z,82.28
2017-11-30T02:55:09.138Z,82.09
2017-11-30T02:56:18.668Z,82.28
2017-11-30T02:57:28.751Z,82.18
2017-11-30T02:58:38.559Z,82.28
2017-11-30T02:59:48.630Z,82.94
2017-11-30T03:00:59.112Z,83.04
2017-11-30T03:02:09.205Z,82.28
2017-11-30T03:34:17.220Z,78.18
2017-11-30T03:35:27.009Z,78.46
2017-11-30T03:36:36.808Z,79.88
2017-11-30T03:37:46.608Z,80.69
2017-11-30T03:38:56.705Z,81.59
2017-11-30T03:40:06.589Z,81.59
2017-11-30T03:41:16.686Z,82.72
2017-11-30T03:42:26.748Z,83.2
2017-11-30T03:43:36.018Z,82.91
2017-11-30T03:44:46.102Z,83.2
2017-11-30T03:45:56.209Z,83.76
2017-11-30T03:47:06.282Z,83.67
2017-11-30T03:48:16.398Z,83.9
2017-11-30T03:49:26.464Z,83.9
2017-11-30T03:50:36.286Z,83.9
2017-11-30T03:51:46.354Z,83.33
2017-11-30T03:52:56.438Z,83.81
2017-11-30T03:54:06.228Z,83.05
2017-11-30T03:55:16.029Z,83
2017-11-30T03:56:26.082Z,82.81
2017-11-30T03:57:35.614Z,82.81
2017-11-30T03:58:45.689Z,82.81
2017-11-30T03:59:55.751Z,83
2017-11-30T04:01:05.566Z,83.47
2017-11-30T04:02:15.383Z,83.37
2017-11-30T04:03:25.457Z,83.18
2017-11-30T04:04:35.262Z,83.18
2017-11-30T04:05:45.073Z,82.81
2017-11-30T04:06:55.137Z,82.62
2017-11-30T04:08:05.213Z,82.81
2017-11-30T04:09:15.345Z,83
2017-11-30T04:10:25.155Z,82.81
2017-11-30T04:11:35.225Z,83
2017-11-30T04:12:45.975Z,83.09
2017-11-30T04:13:55.796Z,83.09
2017-11-30T04:15:05.976Z,83.13
2017-11-30T04:16:15.779Z,82.47
2017-11-30T04:17:25.327Z,82.47
2017-11-30T04:18:35.137Z,82.75
2017-11-30T04:19:45.215Z,82.94
2017-11-30T04:20:54.745Z,82.47
2017-11-30T04:22:06.077Z,83
2017-11-30T04:23:15.640Z,83.13
2017-11-30T04:24:25.712Z,82.85
2017-11-30T04:25:35.514Z,83.09
2017-11-30T04:26:45.324Z,83.13
2017-11-30T04:27:56.062Z,83.13
2017-11-30T04:29:05.870Z,83.13
2017-11-30T04:30:15.942Z,83.09
2017-11-30T04:31:26.013Z,82.75
2017-11-30T04:32:36.144Z,83.13
2017-11-30T04:33:45.718Z,83.04
2017-11-30T04:34:55.534Z,82.94
2017-11-30T04:36:05.633Z,82.47
2017-11-30T04:37:15.721Z,82.75
2017-11-30T04:38:25.315Z,82.75
2017-11-30T04:39:34.842Z,82.66
2017-11-30T04:40:44.922Z,82.75
2017-11-30T04:41:54.722Z,82.85
2017-11-30T04:43:04.796Z,82.66
2017-11-30T04:44:14.875Z,82.94
2017-11-30T04:45:24.697Z,83.04
2017-11-30T04:46:34.801Z,82.85
2017-11-30T04:47:44.346Z,82.66
2017-11-30T04:48:54.190Z,82.47
2017-11-30T04:50:03.731Z,83.23
2017-11-30T04:51:13.808Z,83.13
2017-11-30T04:52:23.885Z,82.94
2017-11-30T04:53:33.966Z,83.13
2017-11-30T04:54:43.251Z,82.94
2017-11-30T04:55:52.890Z,83.13
2017-11-30T04:57:02.697Z,83.04
2017-11-30T04:58:13.867Z,83.04
2017-11-30T04:59:24.460Z,82.94
2017-11-30T05:00:34.551Z,83.13
2017-11-30T05:01:44.627Z,83.13
2017-11-30T05:02:54.444Z,83.13
2017-11-30T05:04:04.522Z,83.04
2017-11-30T05:05:14.584Z,83.13
2017-11-30T05:06:25.593Z,83.13
2017-11-30T05:07:35.667Z,83.13
2017-11-30T05:08:45.475Z,83.04
2017-11-30T05:09:55.284Z,82.85
2017-11-30T05:11:05.358Z,83.13
2017-11-30T05:12:15.162Z,82.94
2017-11-30T05:13:24.980Z,83.13
2017-11-30T05:14:35.080Z,83.23
2017-11-30T05:15:44.910Z,83.23
2017-11-30T05:16:54.982Z,82.85
2017-11-30T05:18:05.148Z,82.81
2017-11-30T05:19:15.285Z,82.94
2017-11-30T05:20:25.081Z,82.9
2017-11-30T05:21:34.652Z,82.81
2017-11-30T05:22:44.749Z,83.13
2017-11-30T05:23:54.821Z,83.13
2017-11-30T05:25:04.415Z,82.94
2017-11-30T05:26:13.934Z,83.13
2017-11-30T05:27:23.787Z,82.56
2017-11-30T05:28:33.599Z,82.37
2017-11-30T05:29:43.675Z,82.66
2017-11-30T05:30:53.797Z,82.75
2017-11-30T05:32:03.614Z,82.66
2017-11-30T05:33:13.689Z,83.09
2017-11-30T05:34:23.792Z,83.13
2017-11-30T05:35:33.865Z,83.13
2017-11-30T05:36:43.671Z,82.56
2017-11-30T05:37:53.208Z,82.56
2017-11-30T05:39:03.029Z,82.75
2017-11-30T05:40:13.142Z,82.85
2017-11-30T05:41:23.241Z,82.85
2017-11-30T05:42:33.346Z,82.75
2017-11-30T05:43:43.174Z,82.75
2017-11-30T05:44:53.284Z,82.47
2017-11-30T05:46:03.361Z,82.75
2017-11-30T05:47:13.171Z,82.85
2017-11-30T05:48:23.303Z,82.85
2017-11-30T05:49:33.110Z,82.66
2017-11-30T05:50:42.926Z,82.85
2017-11-30T05:51:52.745Z,82.94
2017-11-30T05:53:02.562Z,83.04
2017-11-30T05:54:12.712Z,82.85
2017-11-30T05:55:22.229Z,82.85
2017-11-30T05:56:32.303Z,82.47
2017-11-30T05:57:42.117Z,82.75
2017-11-30T05:58:52.189Z,82.56
2017-11-30T06:00:02.014Z,82.66
2017-11-30T06:01:12.099Z,82.66
2017-11-30T06:02:21.894Z,82.75
2017-11-30T06:03:31.441Z,82.85
2017-11-30T06:04:41.524Z,82.47
2017-11-30T06:05:51.389Z,82.47
2017-11-30T06:07:00.653Z,82.47
2017-11-30T06:08:10.477Z,82.47
2017-11-30T06:09:20.304Z,82.75
2017-11-30T06:10:30.380Z,82.85
2017-11-30T06:11:40.278Z,82.66
2017-11-30T06:12:50.367Z,83.04
2017-11-30T06:14:00.458Z,82.09
2017-11-30T06:15:09.999Z,82.94
2017-11-30T06:16:19.867Z,82.85
2017-11-30T06:17:29.663Z,82.09
2017-11-30T06:18:39.734Z,82.47
2017-11-30T06:19:49.823Z,82.09
2017-11-30T06:20:59.632Z,82.09
2017-11-30T06:22:09.703Z,82.56
2017-11-30T06:23:19.846Z,82.28
2017-11-30T06:24:29.636Z,82.18
2017-11-30T06:25:41.089Z,82.47
2017-11-30T06:26:51.513Z,82.09
2017-11-30T06:28:01.598Z,82.47
2017-11-30T06:29:11.666Z,82.09
2017-11-30T06:30:21.217Z,82.28
2017-11-30T06:31:31.288Z,82.18
2017-11-30T06:32:41.373Z,82.18
2017-11-30T06:33:51.172Z,82.37
2017-11-30T06:35:00.724Z,82.28
2017-11-30T06:36:10.276Z,82.94
2017-11-30T06:37:20.104Z,82.18
2017-11-30T06:38:29.922Z,82.28
2017-11-30T06:39:40.005Z,82.28
2017-11-30T06:40:49.869Z,82.18
2017-11-30T06:42:00.173Z,82.37
2017-11-30T06:43:09.979Z,82.47
2017-11-30T06:44:20.072Z,82.28
2017-11-30T06:45:29.618Z,82.18
2017-11-30T06:46:38.907Z,82.18
2017-11-30T06:47:48.739Z,82.28
2017-11-30T06:48:58.530Z,82.28
2017-11-30T06:50:08.607Z,82.56
2017-11-30T06:51:18.419Z,82.37
2017-11-30T06:52:28.536Z,82.66
2017-11-30T06:53:38.617Z,81.81
2017-11-30T06:54:48.426Z,82.28
2017-11-30T06:55:58.255Z,82.18
2017-11-30T06:57:08.346Z,82.18
2017-11-30T06:58:18.203Z,81.99
2017-11-30T06:59:28.270Z,81.62
2017-11-30T07:00:38.352Z,81.52
2017-11-30T07:01:48.177Z,81.52
2017-11-30T07:02:58.260Z,81.99
2017-11-30T07:04:08.467Z,82.32
2017-11-30T07:05:17.774Z,81.56
2017-11-30T07:06:27.857Z,82.23
2017-11-30T07:07:37.910Z,82.04
2017-11-30T07:08:47.455Z,82.23
2017-11-30T07:09:57.329Z,82.04
2017-11-30T07:11:07.138Z,81.94
2017-11-30T07:12:17.224Z,81.94
2017-11-30T07:13:27.040Z,82.13
2017-11-30T07:14:37.153Z,82.04
2017-11-30T07:15:46.959Z,82.09
2017-11-30T07:16:57.035Z,81.56
2017-11-30T07:18:07.115Z,82.04
2017-11-30T07:19:16.929Z,81.66
2017-11-30T07:20:26.744Z,81.75
2017-11-30T07:21:36.560Z,81.75
2017-11-30T07:22:46.649Z,82.23
2017-11-30T07:23:56.731Z,81.9
2017-11-30T07:25:06.274Z,82.47
2017-11-30T07:26:16.394Z,82.66
2017-11-30T07:27:26.509Z,82.47
2017-11-30T07:28:36.599Z,81.9
2017-11-30T07:29:46.698Z,82.28
2017-11-30T07:30:56.521Z,82.09
2017-11-30T07:32:06.609Z,82.18
2017-11-30T07:33:16.682Z,82.23
2017-11-30T07:34:26.508Z,82.23
2017-11-30T07:35:36.318Z,81.99
2017-11-30T07:36:46.398Z,81.71
2017-11-30T07:37:56.469Z,82.04
2017-11-30T07:39:06.320Z,82.18
2017-11-30T07:40:15.881Z,81.71
2017-11-30T07:41:25.685Z,81.71
2017-11-30T07:42:35.503Z,81.94
2017-11-30T07:43:45.312Z,81.71
2017-11-30T07:44:55.424Z,81.9
2017-11-30T07:46:05.229Z,81.81
2017-11-30T07:47:16.037Z,81.9
2017-11-30T07:48:26.113Z,81.71
2017-11-30T07:49:35.932Z,81.71
2017-11-30T07:50:46.019Z,81.71
2017-11-30T07:51:55.846Z,81.85
2017-11-30T07:53:05.666Z,81.9
2017-11-30T07:54:15.754Z,81.85
2017-11-30T07:55:25.809Z,81.85
2017-11-30T07:56:35.721Z,81.94
2017-11-30T07:57:45.793Z,81.9
2017-11-30T07:58:55.612Z,81.94
2017-11-30T08:00:05.682Z,81.75
2017-11-30T08:01:15.764Z,81.94
2017-11-30T08:02:25.566Z,81.66
2017-11-30T08:03:35.646Z,82.23
2017-11-30T08:04:45.201Z,82.23
2017-11-30T08:05:55.302Z,81.75
2017-11-30T08:07:05.373Z,81.94
2017-11-30T08:08:15.185Z,81.66
2017-11-30T08:09:25.250Z,81.94
2017-11-30T08:10:35.138Z,81.94
2017-11-30T08:11:44.690Z,81.85
2017-11-30T08:12:54.780Z,81.85
2017-11-30T08:14:04.103Z,81.85
2017-11-30T08:15:14.175Z,81.94
2017-11-30T08:16:24.259Z,81.56
2017-11-30T08:17:34.063Z,81.94
2017-11-30T08:18:44.143Z,81.94
2017-11-30T08:19:54.281Z,82.04
2017-11-30T08:21:03.819Z,81.85
2017-11-30T08:22:13.349Z,82.04
2017-11-30T08:23:23.166Z,81.85
2017-11-30T08:24:33.257Z,81.85
2017-11-30T08:25:43.093Z,81.66
2017-11-30T08:26:53.163Z,81.56
2017-11-30T08:28:02.713Z,81.66
2017-11-30T08:29:12.524Z,81.75
2017-11-30T08:30:22.613Z,81.85
2017-11-30T08:31:32.693Z,82.13
2017-11-30T08:32:42.491Z,82.04
2017-11-30T08:33:52.898Z,82.13
2017-11-30T08:35:02.730Z,82.23
2017-11-30T08:36:12.263Z,82.23
2017-11-30T08:37:22.121Z,82.13
2017-11-30T08:38:31.914Z,81.85
2017-11-30T08:39:41.983Z,81.94
2017-11-30T08:40:51.799Z,81.85
2017-11-30T08:42:01.869Z,81.75
2017-11-30T08:43:12.004Z,81.66
2017-11-30T08:44:21.801Z,81.85
2017-11-30T08:45:31.601Z,81.56
2017-11-30T08:46:41.413Z,81.56
2017-11-30T08:47:51.228Z,81.56
2017-11-30T08:49:01.087Z,81.47
2017-11-30T08:50:10.906Z,81.51
2017-11-30T08:51:20.722Z,81.51
2017-11-30T08:52:30.840Z,81.7
2017-11-30T08:53:40.918Z,81.23
2017-11-30T08:54:51.056Z,81.51
2017-11-30T08:56:01.149Z,81.51
2017-11-30T08:57:11.264Z,81.32
2017-11-30T08:58:21.083Z,81.7
2017-11-30T08:59:30.912Z,81.7
2017-11-30T09:00:40.974Z,81.98
2017-11-30T09:01:50.788Z,80.75
2017-11-30T09:03:00.870Z,80.94
2017-11-30T09:04:10.949Z,81.74
2017-11-30T09:05:21.030Z,81.36
2017-11-30T09:06:30.835Z,81.17
2017-11-30T09:07:40.930Z,81.07
2017-11-30T09:08:50.494Z,80.79
2017-11-30T09:10:00.078Z,80.88
2017-11-30T09:11:09.890Z,81.17
2017-11-30T09:12:19.696Z,81.07
2017-11-30T09:13:29.502Z,80.69
2017-11-30T09:14:39.338Z,80.69
2017-11-30T09:15:49.420Z,80.93
2017-11-30T09:16:59.501Z,80.26
2017-11-30T09:18:09.051Z,80.07
2017-11-30T09:19:18.880Z,80.26
2017-11-30T09:20:28.682Z,80.45
2017-11-30T09:21:38.009Z,80.16
2017-11-30T09:22:47.287Z,80.3
2017-11-30T09:23:57.114Z,80.07
2017-11-30T09:25:07.210Z,80.49
2017-11-30T09:26:17.286Z,80.64
2017-11-30T09:27:27.415Z,80.45
2017-11-30T09:28:37.277Z,81.02
2017-11-30T09:29:47.089Z,80.68
2017-11-30T09:30:57.190Z,81.12
2017-11-30T09:32:06.729Z,81.02
2017-11-30T09:33:16.801Z,81.02
2017-11-30T09:34:26.606Z,81.21
2017-11-30T09:35:36.429Z,80.74
2017-11-30T09:36:46.511Z,81.21
2017-11-30T09:37:56.064Z,80.83
2017-11-30T09:39:06.290Z,80.93
2017-11-30T09:40:16.087Z,80.74
2017-11-30T09:41:25.887Z,80.64
2017-11-30T09:42:35.692Z,80.83
2017-11-30T09:43:45.243Z,80.74
2017-11-30T09:44:54.798Z,80.45
2017-11-30T09:46:04.884Z,80.83
2017-11-30T09:47:14.726Z,80.83
2017-11-30T09:48:24.530Z,80.93
2017-11-30T09:49:34.351Z,81.02
2017-11-30T09:50:44.442Z,81.12
2017-11-30T09:51:54.504Z,80.64
2017-11-30T09:53:04.313Z,80.74
2017-11-30T09:54:14.136Z,81.12
2017-11-30T09:55:23.954Z,81.21
2017-11-30T09:56:33.572Z,81.12
2017-11-30T09:57:43.149Z,81.21
2017-11-30T09:58:52.974Z,80.93
2017-11-30T10:00:02.804Z,81.49
2017-11-30T10:01:12.882Z,81.12
2017-11-30T10:02:22.426Z,81.21
2017-11-30T10:03:32.508Z,81.21
2017-11-30T10:04:42.328Z,81.49
2017-11-30T10:05:52.433Z,81.59
2017-11-30T10:07:02.535Z,80.93
2017-11-30T10:08:12.656Z,81.84
2017-11-30T10:09:22.216Z,81.87
2017-11-30T10:10:32.033Z,81.68
2017-11-30T10:11:41.590Z,81.45
2017-11-30T10:12:51.127Z,81.68
2017-11-30T10:14:00.689Z,81.97
2017-11-30T10:15:10.775Z,81.12
2017-11-30T10:16:20.871Z,81.87
2017-11-30T10:17:30.684Z,81.87
2017-11-30T10:18:40.501Z,81.02
2017-11-30T10:19:51.921Z,81.55
2017-11-30T10:21:02.272Z,81.65
2017-11-30T10:22:12.336Z,81.26
2017-11-30T10:23:22.142Z,81.45
2017-11-30T10:24:32.226Z,81.55
2017-11-30T10:25:42.091Z,81.55
2017-11-30T10:26:52.178Z,81.65
2017-11-30T10:28:02.270Z,81.65
2017-11-30T10:29:12.092Z,81.65
2017-11-30T10:30:21.930Z,81.65
2017-11-30T10:31:32.133Z,81.65
2017-11-30T10:32:42.293Z,81.55
2017-11-30T10:33:52.748Z,81.55
2017-11-30T10:35:03.887Z,82.03
2017-11-30T10:36:13.936Z,81.65
2017-11-30T10:37:23.922Z,81.74
2017-11-30T10:38:34.184Z,81.65
2017-11-30T10:39:44.042Z,81.74
2017-11-30T10:40:53.863Z,82.03
2017-11-30T10:42:03.450Z,81.93
2017-11-30T10:43:13.540Z,81.65
2017-11-30T10:44:23.648Z,81.93
2017-11-30T10:45:33.729Z,81.65
2017-11-30T10:46:43.805Z,81.84
2017-11-30T10:47:53.904Z,81.98
2017-11-30T10:49:03.972Z,81.84
2017-11-30T10:50:15.440Z,81.88
2017-11-30T10:51:24.982Z,81.7
2017-11-30T10:52:35.056Z,81.98
2017-11-30T10:53:46.241Z,81.88
2017-11-30T10:54:55.779Z,81.74
2017-11-30T10:56:05.605Z,81.98
2017-11-30T10:57:15.194Z,81.79
2017-11-30T10:58:24.753Z,81.36
2017-11-30T10:59:34.571Z,81.65
2017-11-30T11:00:44.410Z,81.55
2017-11-30T11:01:53.955Z,81.55
2017-11-30T11:03:04.129Z,81.36
2017-11-30T11:04:13.685Z,81.84
2017-11-30T11:05:23.783Z,81.84
2017-11-30T11:06:33.923Z,81.65
2017-11-30T11:07:43.997Z,81.65
2017-11-30T11:08:54.141Z,81.84
2017-11-30T11:10:04.900Z,81.84
2017-11-30T11:11:14.445Z,81.74
2017-11-30T11:12:24.545Z,81.74
2017-11-30T11:13:34.368Z,82.03
2017-11-30T11:14:44.511Z,81.55
2017-11-30T11:15:54.090Z,81.65
2017-11-30T11:17:04.203Z,81.65
2017-11-30T11:18:14.289Z,81.26
2017-11-30T11:19:23.852Z,81.45
2017-11-30T11:20:34.375Z,81.26
2017-11-30T11:21:44.443Z,81.26
2017-11-30T11:22:54.537Z,81.74
2017-11-30T11:24:05.460Z,81.36
2017-11-30T11:25:15.300Z,81.36
2017-11-30T11:26:25.541Z,81.26
2017-11-30T11:27:35.621Z,81.65
2017-11-30T11:28:45.432Z,81.65
2017-11-30T11:29:55.540Z,81.65
2017-11-30T11:31:05.364Z,81.36
2017-11-30T11:32:15.236Z,81.55
2017-11-30T11:33:25.056Z,81.55
2017-11-30T11:34:34.613Z,81.74
2017-11-30T11:35:44.424Z,81.84
2017-11-30T11:36:54.524Z,82.03
2017-11-30T11:38:04.389Z,82.03
2017-11-30T11:39:14.489Z,81.93
2017-11-30T11:40:24.302Z,82.21
2017-11-30T11:41:34.110Z,82.21
2017-11-30T11:42:44.211Z,82.4
2017-11-30T11:43:53.799Z,82.31
2017-11-30T11:45:03.882Z,82.21
2017-11-30T11:46:13.698Z,82.12
2017-11-30T11:47:23.528Z,82.21
2017-11-30T11:48:33.336Z,82.21
2017-11-30T11:49:43.434Z,82.08
2017-11-30T11:50:53.536Z,82.03
2017-11-30T11:52:04.142Z,81.93
2017-11-30T11:53:14.297Z,81.45
2017-11-30T11:54:24.107Z,81.55
2017-11-30T11:55:33.933Z,81.45
2017-11-30T11:56:44.034Z,81.26
2017-11-30T11:57:53.841Z,81.74
2017-11-30T11:59:03.673Z,81.65
2017-11-30T12:00:13.759Z,80.98
2017-11-30T12:01:23.376Z,81.17
2017-11-30T12:02:33.256Z,80.79
2017-11-30T12:03:43.346Z,80.79
2017-11-30T12:04:53.473Z,80.88
2017-11-30T12:06:03.602Z,81.12
2017-11-30T12:07:13.727Z,81.45
2017-11-30T12:08:23.600Z,81.02
2017-11-30T12:09:33.153Z,81.02
2017-11-30T12:10:42.955Z,81.21
2017-11-30T12:11:53.050Z,81.4
2017-11-30T12:13:02.999Z,81.49
2017-11-30T12:14:13.088Z,81.12
2017-11-30T12:15:22.900Z,81.4
2017-11-30T12:16:32.994Z,80.83
2017-11-30T12:17:42.291Z,81.12
2017-11-30T12:18:51.644Z,81.78
2017-11-30T12:20:01.763Z,81.4
2017-11-30T12:21:11.860Z,81.59
2017-11-30T12:22:22.023Z,81.59
2017-11-30T12:23:32.149Z,81.59
2017-11-30T12:24:42.297Z,81.59
2017-11-30T12:25:51.851Z,81.59
2017-11-30T12:27:01.942Z,82.12
2017-11-30T12:28:11.763Z,82.21
2017-11-30T12:29:21.859Z,81.93
2017-11-30T12:30:31.688Z,81.93
2017-11-30T12:31:41.824Z,82.21
2017-11-30T12:32:51.895Z,81.84
2017-11-30T12:34:01.737Z,82.03
2017-11-30T12:35:11.302Z,81.84
2017-11-30T12:36:21.182Z,81.93
2017-11-30T12:37:30.718Z,81.84
2017-11-30T12:38:40.812Z,82.31
2017-11-30T12:39:50.363Z,82.88
2017-11-30T12:41:00.477Z,82.5
2017-11-30T12:42:10.639Z,82.31
2017-11-30T12:43:20.169Z,82.36
2017-11-30T12:44:30.244Z,82.55
2017-11-30T12:45:40.085Z,82.36
2017-11-30T12:46:50.175Z,82.55
2017-11-30T12:47:59.797Z,82.65
2017-11-30T12:49:09.333Z,82.36
2017-11-30T12:50:19.528Z,82.36
2017-11-30T12:51:29.327Z,82.08
2017-11-30T12:52:39.135Z,81.98
2017-11-30T12:53:49.279Z,81.88
2017-11-30T12:54:58.576Z,82.36
2017-11-30T12:56:08.648Z,81.84
2017-11-30T12:57:18.489Z,81.84
2017-11-30T12:58:28.299Z,81.79
2017-11-30T12:59:37.895Z,81.88
2017-11-30T13:00:47.464Z,81.84
2017-11-30T13:01:57.007Z,82.03
2017-11-30T13:03:07.088Z,81.84
2017-11-30T13:04:17.151Z,82.03
2017-11-30T13:05:26.776Z,81.7
2017-11-30T13:06:36.570Z,82.27
2017-11-30T13:07:46.638Z,82.55
2017-11-30T13:08:56.684Z,82.46
2017-11-30T13:10:06.480Z,82.55
2017-11-30T13:11:16.622Z,82.55
2017-11-30T13:12:26.760Z,82.17
2017-11-30T13:13:36.573Z,82.17
2017-11-30T13:14:46.406Z,82.36
2017-11-30T13:15:56.478Z,82.36
2017-11-30T13:17:06.631Z,82.17
2017-11-30T13:18:16.705Z,82.46
2017-11-30T13:19:26.775Z,82.93
2017-11-30T13:20:36.569Z,82.93
2017-11-30T13:21:46.636Z,82.17
2017-11-30T13:22:56.466Z,82.55
2017-11-30T13:24:07.224Z,82.36
2017-11-30T13:25:17.274Z,82.46
2017-11-30T13:26:28.530Z,82.46
2017-11-30T13:27:38.335Z,82.08
2017-11-30T13:28:48.193Z,81.88
2017-11-30T13:29:57.997Z,81.79
2017-11-30T13:31:07.547Z,81.88
2017-11-30T13:32:17.639Z,81.79
2017-11-30T13:33:27.695Z,82.17
2017-11-30T13:34:37.581Z,81.7
2017-11-30T13:35:46.866Z,81.88
2017-11-30T13:36:56.715Z,81.93
2017-11-30T13:38:06.552Z,81.74
2017-11-30T13:39:16.629Z,82.03
2017-11-30T13:40:26.748Z,81.93
2017-11-30T13:41:36.929Z,82.4
2017-11-30T13:42:46.995Z,81.93
2017-11-30T13:43:56.788Z,81.93
2017-11-30T13:45:06.868Z,82.03
2017-11-30T13:46:16.997Z,81.93
2017-11-30T13:47:27.047Z,81.93
2017-11-30T13:48:36.854Z,82.21
2017-11-30T13:49:46.674Z,82.03
2017-11-30T13:50:56.730Z,81.84
2017-11-30T13:52:06.592Z,81.84
2017-11-30T13:53:16.662Z,82.5
2017-11-30T13:54:26.473Z,82.4
2017-11-30T13:55:36.513Z,82.17
2017-11-30T13:56:46.351Z,83.03
2017-11-30T13:57:56.476Z,82.55
2017-11-30T13:59:06.545Z,82.93
2017-11-30T14:00:16.618Z,82.93
2017-11-30T14:01:26.428Z,82.74
2017-11-30T14:02:36.753Z,82.84
2017-11-30T14:03:46.960Z,82.65
2017-11-30T14:04:57.020Z,82.74
2017-11-30T14:06:07.100Z,82.65
2017-11-30T14:07:17.142Z,83.22
2017-11-30T14:08:26.955Z,83.03
2017-11-30T14:09:37.860Z,83.03
2017-11-30T14:10:47.406Z,83.03
2017-11-30T14:11:57.463Z,83.31
2017-11-30T14:13:07.558Z,83.12
2017-11-30T14:14:17.345Z,82.93
2017-11-30T14:15:26.878Z,82.93
2017-11-30T14:16:36.431Z,83.12
2017-11-30T14:17:46.259Z,83.17
2017-11-30T14:18:56.302Z,83.22
2017-11-30T14:20:06.098Z,82.93
2017-11-30T14:21:15.885Z,83.12
2017-11-30T14:22:25.954Z,83.12
2017-11-30T14:23:36.010Z,83.31
2017-11-30T14:24:45.864Z,83.12
2017-11-30T14:25:55.944Z,82.74
2017-11-30T14:27:05.743Z,82.55
2017-11-30T14:28:15.542Z,82.65
2017-11-30T14:29:25.614Z,83.17
2017-11-30T14:30:35.427Z,82.89
2017-11-30T14:31:45.483Z,83.17
2017-11-30T14:32:55.298Z,83.22
2017-11-30T14:34:05.812Z,83.03
2017-11-30T14:35:15.630Z,83.03
2017-11-30T14:36:25.222Z,82.93
2017-11-30T14:37:35.347Z,83.03
2017-11-30T14:38:45.398Z,83.12
2017-11-30T14:39:55.473Z,83.17
2017-11-30T14:41:05.531Z,82.98
2017-11-30T14:42:15.370Z,83.17
2017-11-30T14:43:25.473Z,83.22
2017-11-30T14:44:35.521Z,82.93
2017-11-30T14:45:45.658Z,82.89
2017-11-30T14:46:55.430Z,83.03
2017-11-30T14:48:05.009Z,83.17
2017-11-30T14:49:15.067Z,82.79
2017-11-30T14:50:24.876Z,83.22
2017-11-30T14:51:34.423Z,82.93
2017-11-30T14:52:44.248Z,83.08
2017-11-30T14:53:54.105Z,83.08
2017-11-30T14:55:04.166Z,83.08
2017-11-30T14:56:13.966Z,82.79
2017-11-30T14:57:23.504Z,82.79
2017-11-30T14:58:33.034Z,82.7
2017-11-30T14:59:42.890Z,82.89
2017-11-30T15:00:52.711Z,83.17
2017-11-30T15:02:02.510Z,83.08
2017-11-30T15:03:12.571Z,83.55
2017-11-30T15:04:22.184Z,83.27
2017-11-30T15:05:32.328Z,83.17
2017-11-30T15:06:42.134Z,83.27
2017-11-30T15:07:52.215Z,83.27
2017-11-30T15:09:02.289Z,83.08
2017-11-30T15:10:12.359Z,82.89
2017-11-30T15:11:22.145Z,82.89
2017-11-30T15:12:31.665Z,82.89
2017-11-30T15:13:41.730Z,83.08
2017-11-30T15:14:51.774Z,83.08
2017-11-30T15:16:01.832Z,83.17
2017-11-30T15:17:11.691Z,82.98
2017-11-30T15:18:21.539Z,83.08
2017-11-30T15:19:31.588Z,82.89
2017-11-30T15:20:41.391Z,83.08
2017-11-30T15:21:51.470Z,82.98
2017-11-30T15:23:01.131Z,83.17
2017-11-30T15:24:10.969Z,83.17
2017-11-30T15:25:20.512Z,83.36
2017-11-30T15:26:30.577Z,83.36
2017-11-30T15:27:40.630Z,83.08
2017-11-30T15:28:50.746Z,83.08
2017-11-30T15:30:00.816Z,83.46
2017-11-30T15:31:10.879Z,82.79
2017-11-30T15:32:20.671Z,82.89
2017-11-30T15:33:30.551Z,82.7